sensor_id;sensor_type;location;lat;lon;timestamp;P1;durP1;ratioP1;P2;durP2;ratioP2
15295;SDS011;7749;49.964;7.890;2023-02-04T00:00:45;11.47;;;3.87;;
15295;SDS011;7749;49.964;7.890;2023-02-04T00:03:16;14.63;;;3.63;;
15295;SDS011;7749;49.964;7.890;2023-02-04T00:05:44;12.47;;;3.20;;
15295;SDS011;7749;49.964;7.890;2023-02-04T00:08:11;12.40;;;3.60;;
15295;SDS011;7749;49.964;7.890;2023-02-04T00:10:39;13.57;;;3.37;;
15295;SDS011;7749;49.964;7.890;2023-02-04T00:13:06;11.53;;;3.30;;
15295;SDS011;7749;49.964;7.890;2023-02-04T00:15:36;10.30;;;3.50;;
15295;SDS011;7749;49.964;7.890;2023-02-04T00:18:03;14.10;;;3.60;;
15295;SDS011;7749;49.964;7.890;2023-02-04T00:20:33;13.40;;;3.23;;
15295;SDS011;7749;49.964;7.890;2023-02-04T00:23:00;14.93;;;3.57;;
15295;SDS011;7749;49.964;7.890;2023-02-04T00:25:28;13.83;;;3.17;;
15295;SDS011;7749;49.964;7.890;2023-02-04T00:27:56;11.70;;;3.67;;
15295;SDS011;7749;49.964;7.890;2023-02-04T00:30:24;12.77;;;3.87;;
15295;SDS011;7749;49.964;7.890;2023-02-04T00:32:52;13.43;;;3.93;;
15295;SDS011;7749;49.964;7.890;2023-02-04T00:35:21;12.73;;;3.30;;
15295;SDS011;7749;49.964;7.890;2023-02-04T00:37:50;10.17;;;3.00;;
15295;SDS011;7749;49.964;7.890;2023-02-04T00:40:18;15.63;;;3.43;;
15295;SDS011;7749;49.964;7.890;2023-02-04T00:42:45;15.53;;;3.47;;
15295;SDS011;7749;49.964;7.890;2023-02-04T00:45:13;11.50;;;3.60;;
15295;SDS011;7749;49.964;7.890;2023-02-04T00:47:41;11.67;;;3.47;;
15295;SDS011;7749;49.964;7.890;2023-02-04T00:50:11;14.03;;;3.87;;
15295;SDS011;7749;49.964;7.890;2023-02-04T00:52:39;12.50;;;3.57;;
15295;SDS011;7749;49.964;7.890;2023-02-04T00:55:09;14.03;;;3.87;;
15295;SDS011;7749;49.964;7.890;2023-02-04T00:57:38;15.60;;;3.97;;
15295;SDS011;7749;49.964;7.890;2023-02-04T01:00:06;11.67;;;3.10;;
15295;SDS011;7749;49.964;7.890;2023-02-04T01:02:35;10.37;;;3.10;;
15295;SDS011;7749;49.964;7.890;2023-02-04T01:05:02;14.03;;;4.13;;
15295;SDS011;7749;49.964;7.890;2023-02-04T01:07:30;13.87;;;3.50;;
15295;SDS011;7749;49.964;7.890;2023-02-04T01:09:58;15.30;;;3.57;;
15295;SDS011;7749;49.964;7.890;2023-02-04T01:12:27;15.80;;;3.67;;
15295;SDS011;7749;49.964;7.890;2023-02-04T01:14:55;13.97;;;4.20;;
15295;SDS011;7749;49.964;7.890;2023-02-04T01:17:22;14.80;;;4.07;;
15295;SDS011;7749;49.964;7.890;2023-02-04T01:19:51;14.23;;;3.67;;
15295;SDS011;7749;49.964;7.890;2023-02-04T01:22:18;14.47;;;3.83;;
15295;SDS011;7749;49.964;7.890;2023-02-04T01:24:46;9.33;;;3.43;;
15295;SDS011;7749;49.964;7.890;2023-02-04T01:27:16;10.33;;;3.60;;
15295;SDS011;7749;49.964;7.890;2023-02-04T01:29:44;13.40;;;3.60;;
15295;SDS011;7749;49.964;7.890;2023-02-04T01:32:14;10.77;;;3.10;;
15295;SDS011;7749;49.964;7.890;2023-02-04T01:34:42;14.60;;;3.63;;
15295;SDS011;7749;49.964;7.890;2023-02-04T01:37:10;13.40;;;3.87;;
15295;SDS011;7749;49.964;7.890;2023-02-04T01:39:38;13.70;;;3.23;;
15295;SDS011;7749;49.964;7.890;2023-02-04T01:42:05;15.60;;;4.23;;
15295;SDS011;7749;49.964;7.890;2023-02-04T01:44:33;13.27;;;3.70;;
15295;SDS011;7749;49.964;7.890;2023-02-04T01:47:01;12.63;;;4.00;;
15295;SDS011;7749;49.964;7.890;2023-02-04T01:49:29;15.00;;;3.77;;
15295;SDS011;7749;49.964;7.890;2023-02-04T01:51:57;12.83;;;3.37;;
15295;SDS011;7749;49.964;7.890;2023-02-04T01:54:25;18.70;;;3.83;;
15295;SDS011;7749;49.964;7.890;2023-02-04T01:56:53;13.40;;;4.10;;
15295;SDS011;7749;49.964;7.890;2023-02-04T01:59:21;7.37;;;3.33;;
15295;SDS011;7749;49.964;7.890;2023-02-04T02:01:52;13.20;;;3.90;;
15295;SDS011;7749;49.964;7.890;2023-02-04T02:04:30;9.83;;;3.27;;
15295;SDS011;7749;49.964;7.890;2023-02-04T02:07:00;13.60;;;3.70;;
15295;SDS011;7749;49.964;7.890;2023-02-04T02:09:33;11.87;;;3.70;;
15295;SDS011;7749;49.964;7.890;2023-02-04T02:12:00;11.80;;;3.60;;
15295;SDS011;7749;49.964;7.890;2023-02-04T02:14:30;11.60;;;3.70;;
15295;SDS011;7749;49.964;7.890;2023-02-04T02:16:58;14.20;;;3.97;;
15295;SDS011;7749;49.964;7.890;2023-02-04T02:19:28;9.70;;;3.80;;
15295;SDS011;7749;49.964;7.890;2023-02-04T02:22:18;11.73;;;3.40;;
15295;SDS011;7749;49.964;7.890;2023-02-04T02:25:12;12.70;;;4.37;;
15295;SDS011;7749;49.964;7.890;2023-02-04T02:27:40;9.17;;;3.00;;
15295;SDS011;7749;49.964;7.890;2023-02-04T02:30:09;12.80;;;3.37;;
15295;SDS011;7749;49.964;7.890;2023-02-04T02:32:40;14.37;;;3.70;;
15295;SDS011;7749;49.964;7.890;2023-02-04T02:35:08;12.57;;;3.70;;
15295;SDS011;7749;49.964;7.890;2023-02-04T02:37:36;9.40;;;3.37;;
15295;SDS011;7749;49.964;7.890;2023-02-04T02:40:04;9.00;;;3.23;;
15295;SDS011;7749;49.964;7.890;2023-02-04T02:42:32;9.13;;;3.20;;
15295;SDS011;7749;49.964;7.890;2023-02-04T02:45:01;7.67;;;3.57;;
15295;SDS011;7749;49.964;7.890;2023-02-04T02:47:32;11.77;;;3.70;;
15295;SDS011;7749;49.964;7.890;2023-02-04T02:50:00;8.77;;;3.20;;
15295;SDS011;7749;49.964;7.890;2023-02-04T02:52:28;9.63;;;3.30;;
15295;SDS011;7749;49.964;7.890;2023-02-04T02:54:58;9.37;;;3.17;;
15295;SDS011;7749;49.964;7.890;2023-02-04T02:57:26;8.00;;;3.03;;
15295;SDS011;7749;49.964;7.890;2023-02-04T02:59:54;9.67;;;2.77;;
15295;SDS011;7749;49.964;7.890;2023-02-04T03:02:22;7.40;;;3.13;;
15295;SDS011;7749;49.964;7.890;2023-02-04T03:04:52;8.17;;;3.60;;
15295;SDS011;7749;49.964;7.890;2023-02-04T03:07:24;6.83;;;3.30;;
15295;SDS011;7749;49.964;7.890;2023-02-04T03:09:51;8.93;;;3.60;;
15295;SDS011;7749;49.964;7.890;2023-02-04T03:12:22;10.07;;;3.07;;
15295;SDS011;7749;49.964;7.890;2023-02-04T03:14:50;10.67;;;3.73;;
15295;SDS011;7749;49.964;7.890;2023-02-04T03:17:20;9.93;;;3.80;;
15295;SDS011;7749;49.964;7.890;2023-02-04T03:19:48;7.77;;;3.70;;
15295;SDS011;7749;49.964;7.890;2023-02-04T03:22:16;9.93;;;4.20;;
15295;SDS011;7749;49.964;7.890;2023-02-04T03:24:47;10.43;;;3.77;;
15295;SDS011;7749;49.964;7.890;2023-02-04T03:27:14;11.67;;;3.57;;
15295;SDS011;7749;49.964;7.890;2023-02-04T03:29:43;8.90;;;3.70;;
15295;SDS011;7749;49.964;7.890;2023-02-04T03:32:11;10.83;;;4.53;;
15295;SDS011;7749;49.964;7.890;2023-02-04T03:34:41;12.23;;;4.63;;
15295;SDS011;7749;49.964;7.890;2023-02-04T03:37:09;9.30;;;4.27;;
15295;SDS011;7749;49.964;7.890;2023-02-04T03:39:36;13.23;;;4.60;;
15295;SDS011;7749;49.964;7.890;2023-02-04T03:42:04;10.70;;;4.37;;
15295;SDS011;7749;49.964;7.890;2023-02-04T03:44:32;10.40;;;4.30;;
15295;SDS011;7749;49.964;7.890;2023-02-04T03:46:59;8.90;;;4.13;;
15295;SDS011;7749;49.964;7.890;2023-02-04T03:49:27;11.47;;;4.20;;
15295;SDS011;7749;49.964;7.890;2023-02-04T03:51:54;13.23;;;4.80;;
15295;SDS011;7749;49.964;7.890;2023-02-04T03:54:22;13.07;;;4.13;;
15295;SDS011;7749;49.964;7.890;2023-02-04T03:56:50;17.63;;;5.20;;
15295;SDS011;7749;49.964;7.890;2023-02-04T03:59:21;11.33;;;4.90;;
15295;SDS011;7749;49.964;7.890;2023-02-04T04:01:48;11.90;;;5.10;;
15295;SDS011;7749;49.964;7.890;2023-02-04T04:04:19;8.43;;;4.13;;
15295;SDS011;7749;49.964;7.890;2023-02-04T04:06:47;16.27;;;5.23;;
15295;SDS011;7749;49.964;7.890;2023-02-04T04:09:14;14.20;;;4.90;;
15295;SDS011;7749;49.964;7.890;2023-02-04T04:11:42;10.40;;;4.50;;
15295;SDS011;7749;49.964;7.890;2023-02-04T04:14:13;10.77;;;4.50;;
15295;SDS011;7749;49.964;7.890;2023-02-04T04:16:43;12.13;;;4.30;;
15295;SDS011;7749;49.964;7.890;2023-02-04T04:19:11;14.00;;;4.50;;
15295;SDS011;7749;49.964;7.890;2023-02-04T04:21:38;11.23;;;4.17;;
15295;SDS011;7749;49.964;7.890;2023-02-04T04:24:06;12.33;;;3.70;;
15295;SDS011;7749;49.964;7.890;2023-02-04T04:26:34;12.07;;;4.07;;
15295;SDS011;7749;49.964;7.890;2023-02-04T04:29:01;11.77;;;3.97;;
15295;SDS011;7749;49.964;7.890;2023-02-04T04:31:29;7.73;;;4.10;;
15295;SDS011;7749;49.964;7.890;2023-02-04T04:33:56;18.70;;;4.20;;
15295;SDS011;7749;49.964;7.890;2023-02-04T04:36:24;11.30;;;4.10;;
15295;SDS011;7749;49.964;7.890;2023-02-04T04:38:52;12.57;;;4.23;;
15295;SDS011;7749;49.964;7.890;2023-02-04T04:41:19;9.50;;;3.60;;
15295;SDS011;7749;49.964;7.890;2023-02-04T04:43:47;9.17;;;3.90;;
15295;SDS011;7749;49.964;7.890;2023-02-04T04:46:14;10.87;;;3.70;;
15295;SDS011;7749;49.964;7.890;2023-02-04T04:48:42;11.40;;;3.83;;
15295;SDS011;7749;49.964;7.890;2023-02-04T04:51:09;13.70;;;3.87;;
15295;SDS011;7749;49.964;7.890;2023-02-04T04:53:37;11.80;;;3.57;;
15295;SDS011;7749;49.964;7.890;2023-02-04T04:56:05;12.57;;;4.10;;
15295;SDS011;7749;49.964;7.890;2023-02-04T04:58:33;10.60;;;3.50;;
15295;SDS011;7749;49.964;7.890;2023-02-04T05:01:00;8.63;;;3.57;;
15295;SDS011;7749;49.964;7.890;2023-02-04T05:03:28;9.80;;;3.90;;
15295;SDS011;7749;49.964;7.890;2023-02-04T05:05:56;9.83;;;4.50;;
15295;SDS011;7749;49.964;7.890;2023-02-04T05:08:23;10.17;;;3.97;;
15295;SDS011;7749;49.964;7.890;2023-02-04T05:10:51;13.90;;;4.50;;
15295;SDS011;7749;49.964;7.890;2023-02-04T05:13:18;16.47;;;5.10;;
15295;SDS011;7749;49.964;7.890;2023-02-04T05:15:46;11.43;;;4.40;;
15295;SDS011;7749;49.964;7.890;2023-02-04T05:18:14;8.60;;;3.73;;
15295;SDS011;7749;49.964;7.890;2023-02-04T05:20:41;12.00;;;3.70;;
15295;SDS011;7749;49.964;7.890;2023-02-04T05:23:09;14.80;;;4.80;;
15295;SDS011;7749;49.964;7.890;2023-02-04T05:25:36;9.70;;;4.23;;
15295;SDS011;7749;49.964;7.890;2023-02-04T05:28:04;9.50;;;4.60;;
15295;SDS011;7749;49.964;7.890;2023-02-04T05:30:32;10.10;;;4.60;;
15295;SDS011;7749;49.964;7.890;2023-02-04T05:33:00;10.80;;;4.70;;
15295;SDS011;7749;49.964;7.890;2023-02-04T05:35:28;13.50;;;5.17;;
15295;SDS011;7749;49.964;7.890;2023-02-04T05:37:56;9.53;;;4.73;;
15295;SDS011;7749;49.964;7.890;2023-02-04T05:40:23;14.30;;;5.50;;
15295;SDS011;7749;49.964;7.890;2023-02-04T05:42:51;13.60;;;5.80;;
15295;SDS011;7749;49.964;7.890;2023-02-04T05:45:19;13.13;;;5.20;;
15295;SDS011;7749;49.964;7.890;2023-02-04T05:47:46;12.33;;;5.60;;
15295;SDS011;7749;49.964;7.890;2023-02-04T05:50:14;15.23;;;5.73;;
15295;SDS011;7749;49.964;7.890;2023-02-04T05:52:42;13.20;;;5.40;;
15295;SDS011;7749;49.964;7.890;2023-02-04T05:55:10;9.73;;;5.17;;
15295;SDS011;7749;49.964;7.890;2023-02-04T05:57:38;13.17;;;5.37;;
15295;SDS011;7749;49.964;7.890;2023-02-04T06:00:10;19.30;;;5.57;;
15295;SDS011;7749;49.964;7.890;2023-02-04T06:02:38;15.83;;;5.80;;
15295;SDS011;7749;49.964;7.890;2023-02-04T06:05:06;14.40;;;6.03;;
15295;SDS011;7749;49.964;7.890;2023-02-04T06:07:33;15.07;;;5.70;;
15295;SDS011;7749;49.964;7.890;2023-02-04T06:10:01;13.83;;;6.30;;
15295;SDS011;7749;49.964;7.890;2023-02-04T06:12:29;15.90;;;6.27;;
15295;SDS011;7749;49.964;7.890;2023-02-04T06:14:57;15.30;;;6.10;;
15295;SDS011;7749;49.964;7.890;2023-02-04T06:17:26;12.57;;;6.10;;
15295;SDS011;7749;49.964;7.890;2023-02-04T06:19:53;16.43;;;6.70;;
15295;SDS011;7749;49.964;7.890;2023-02-04T06:22:21;18.23;;;6.77;;
15295;SDS011;7749;49.964;7.890;2023-02-04T06:24:50;16.73;;;6.57;;
15295;SDS011;7749;49.964;7.890;2023-02-04T06:27:18;17.57;;;6.80;;
15295;SDS011;7749;49.964;7.890;2023-02-04T06:29:49;14.63;;;7.03;;
15295;SDS011;7749;49.964;7.890;2023-02-04T06:32:19;16.67;;;6.80;;
15295;SDS011;7749;49.964;7.890;2023-02-04T06:34:47;15.73;;;6.37;;
15295;SDS011;7749;49.964;7.890;2023-02-04T06:37:14;16.47;;;6.50;;
15295;SDS011;7749;49.964;7.890;2023-02-04T06:39:43;19.63;;;7.70;;
15295;SDS011;7749;49.964;7.890;2023-02-04T06:42:13;20.27;;;7.17;;
15295;SDS011;7749;49.964;7.890;2023-02-04T06:44:41;17.73;;;6.77;;
15295;SDS011;7749;49.964;7.890;2023-02-04T06:47:08;14.97;;;6.73;;
15295;SDS011;7749;49.964;7.890;2023-02-04T06:49:36;20.20;;;7.33;;
15295;SDS011;7749;49.964;7.890;2023-02-04T06:52:04;15.80;;;7.20;;
15295;SDS011;7749;49.964;7.890;2023-02-04T06:54:31;17.47;;;7.30;;
15295;SDS011;7749;49.964;7.890;2023-02-04T06:56:59;15.77;;;6.70;;
15295;SDS011;7749;49.964;7.890;2023-02-04T06:59:36;19.43;;;7.53;;
15295;SDS011;7749;49.964;7.890;2023-02-04T07:02:06;23.40;;;7.57;;
15295;SDS011;7749;49.964;7.890;2023-02-04T07:04:34;18.70;;;7.63;;
15295;SDS011;7749;49.964;7.890;2023-02-04T07:07:01;19.13;;;7.17;;
15295;SDS011;7749;49.964;7.890;2023-02-04T07:09:29;15.33;;;6.73;;
15295;SDS011;7749;49.964;7.890;2023-02-04T07:11:57;19.77;;;7.70;;
15295;SDS011;7749;49.964;7.890;2023-02-04T07:14:25;20.07;;;7.87;;
15295;SDS011;7749;49.964;7.890;2023-02-04T07:16:52;19.13;;;7.87;;
15295;SDS011;7749;49.964;7.890;2023-02-04T07:19:20;22.60;;;8.50;;
15295;SDS011;7749;49.964;7.890;2023-02-04T07:21:51;19.30;;;8.50;;
15295;SDS011;7749;49.964;7.890;2023-02-04T07:24:22;18.90;;;8.33;;
15295;SDS011;7749;49.964;7.890;2023-02-04T07:26:50;21.40;;;8.10;;
15295;SDS011;7749;49.964;7.890;2023-02-04T07:29:18;15.23;;;7.57;;
15295;SDS011;7749;49.964;7.890;2023-02-04T07:31:51;19.77;;;7.83;;
15295;SDS011;7749;49.964;7.890;2023-02-04T07:34:19;20.73;;;8.30;;
15295;SDS011;7749;49.964;7.890;2023-02-04T07:36:51;21.97;;;8.73;;
15295;SDS011;7749;49.964;7.890;2023-02-04T07:39:18;16.57;;;7.80;;
15295;SDS011;7749;49.964;7.890;2023-02-04T07:41:46;17.67;;;8.07;;
15295;SDS011;7749;49.964;7.890;2023-02-04T07:44:13;21.73;;;8.33;;
15295;SDS011;7749;49.964;7.890;2023-02-04T07:46:43;18.53;;;8.23;;
15295;SDS011;7749;49.964;7.890;2023-02-04T07:49:11;22.37;;;8.87;;
15295;SDS011;7749;49.964;7.890;2023-02-04T07:51:38;21.40;;;8.20;;
15295;SDS011;7749;49.964;7.890;2023-02-04T07:54:09;20.13;;;7.80;;
15295;SDS011;7749;49.964;7.890;2023-02-04T07:56:36;18.13;;;8.07;;
15295;SDS011;7749;49.964;7.890;2023-02-04T07:59:04;15.93;;;8.57;;
15295;SDS011;7749;49.964;7.890;2023-02-04T08:01:32;24.57;;;8.30;;
15295;SDS011;7749;49.964;7.890;2023-02-04T08:04:00;21.50;;;8.87;;
15295;SDS011;7749;49.964;7.890;2023-02-04T08:06:28;25.33;;;8.50;;
15295;SDS011;7749;49.964;7.890;2023-02-04T08:08:55;16.37;;;7.70;;
15295;SDS011;7749;49.964;7.890;2023-02-04T08:11:23;18.73;;;7.97;;
15295;SDS011;7749;49.964;7.890;2023-02-04T08:13:53;20.43;;;8.03;;
15295;SDS011;7749;49.964;7.890;2023-02-04T08:16:20;20.40;;;8.77;;
15295;SDS011;7749;49.964;7.890;2023-02-04T08:18:51;15.27;;;7.50;;
15295;SDS011;7749;49.964;7.890;2023-02-04T08:21:18;22.30;;;9.23;;
15295;SDS011;7749;49.964;7.890;2023-02-04T08:23:46;19.80;;;8.70;;
15295;SDS011;7749;49.964;7.890;2023-02-04T08:26:17;16.07;;;8.27;;
15295;SDS011;7749;49.964;7.890;2023-02-04T08:28:44;22.10;;;12.83;;
15295;SDS011;7749;49.964;7.890;2023-02-04T08:31:13;18.43;;;7.47;;
15295;SDS011;7749;49.964;7.890;2023-02-04T08:33:44;22.50;;;9.00;;
15295;SDS011;7749;49.964;7.890;2023-02-04T08:36:11;20.90;;;8.80;;
15295;SDS011;7749;49.964;7.890;2023-02-04T08:38:39;18.03;;;8.97;;
15295;SDS011;7749;49.964;7.890;2023-02-04T08:41:09;20.07;;;7.40;;
15295;SDS011;7749;49.964;7.890;2023-02-04T08:43:37;17.70;;;7.43;;
15295;SDS011;7749;49.964;7.890;2023-02-04T08:46:04;23.20;;;8.50;;
15295;SDS011;7749;49.964;7.890;2023-02-04T08:48:32;20.67;;;7.23;;
15295;SDS011;7749;49.964;7.890;2023-02-04T08:51:00;17.17;;;7.60;;
15295;SDS011;7749;49.964;7.890;2023-02-04T08:53:28;16.27;;;7.40;;
15295;SDS011;7749;49.964;7.890;2023-02-04T08:55:58;15.47;;;7.53;;
15295;SDS011;7749;49.964;7.890;2023-02-04T08:58:26;22.70;;;8.23;;
15295;SDS011;7749;49.964;7.890;2023-02-04T09:00:53;18.83;;;6.80;;
15295;SDS011;7749;49.964;7.890;2023-02-04T09:03:21;23.80;;;8.13;;
15295;SDS011;7749;49.964;7.890;2023-02-04T09:05:49;18.30;;;6.63;;
15295;SDS011;7749;49.964;7.890;2023-02-04T09:08:17;16.73;;;7.27;;
15295;SDS011;7749;49.964;7.890;2023-02-04T09:10:44;16.93;;;7.43;;
15295;SDS011;7749;49.964;7.890;2023-02-04T09:13:12;19.73;;;7.47;;
15295;SDS011;7749;49.964;7.890;2023-02-04T09:15:40;15.33;;;6.87;;
15295;SDS011;7749;49.964;7.890;2023-02-04T09:18:08;19.67;;;7.73;;
15295;SDS011;7749;49.964;7.890;2023-02-04T09:20:48;16.40;;;6.53;;
15295;SDS011;7749;49.964;7.890;2023-02-04T09:23:18;16.80;;;7.07;;
15295;SDS011;7749;49.964;7.890;2023-02-04T09:25:46;22.13;;;7.67;;
15295;SDS011;7749;49.964;7.890;2023-02-04T09:28:17;20.13;;;7.37;;
15295;SDS011;7749;49.964;7.890;2023-02-04T09:30:45;22.00;;;7.87;;
15295;SDS011;7749;49.964;7.890;2023-02-04T09:33:14;20.17;;;7.90;;
15295;SDS011;7749;49.964;7.890;2023-02-04T09:35:45;21.40;;;7.97;;
15295;SDS011;7749;49.964;7.890;2023-02-04T09:38:13;21.43;;;7.90;;
15295;SDS011;7749;49.964;7.890;2023-02-04T09:40:41;19.63;;;7.50;;
15295;SDS011;7749;49.964;7.890;2023-02-04T09:43:15;22.37;;;8.00;;
15295;SDS011;7749;49.964;7.890;2023-02-04T09:45:53;20.30;;;7.57;;
15295;SDS011;7749;49.964;7.890;2023-02-04T09:48:22;16.93;;;6.87;;
15295;SDS011;7749;49.964;7.890;2023-02-04T09:50:51;19.00;;;6.60;;
15295;SDS011;7749;49.964;7.890;2023-02-04T09:53:25;17.83;;;6.73;;
15295;SDS011;7749;49.964;7.890;2023-02-04T09:55:53;22.47;;;7.40;;
15295;SDS011;7749;49.964;7.890;2023-02-04T09:58:21;22.20;;;6.97;;
15295;SDS011;7749;49.964;7.890;2023-02-04T10:03:50;16.30;;;7.37;;
15295;SDS011;7749;49.964;7.890;2023-02-04T10:06:18;16.80;;;6.93;;
15295;SDS011;7749;49.964;7.890;2023-02-04T10:08:48;21.30;;;6.57;;
15295;SDS011;7749;49.964;7.890;2023-02-04T10:11:17;18.20;;;6.53;;
15295;SDS011;7749;49.964;7.890;2023-02-04T10:13:48;19.53;;;5.80;;
15295;SDS011;7749;49.964;7.890;2023-02-04T10:16:24;19.87;;;7.03;;
15295;SDS011;7749;49.964;7.890;2023-02-04T10:18:58;21.50;;;6.40;;
15295;SDS011;7749;49.964;7.890;2023-02-04T10:21:29;20.53;;;6.73;;
15295;SDS011;7749;49.964;7.890;2023-02-04T10:24:03;23.83;;;6.47;;
15295;SDS011;7749;49.964;7.890;2023-02-04T10:26:52;21.53;;;6.30;;
15295;SDS011;7749;49.964;7.890;2023-02-04T10:29:21;19.53;;;5.83;;
15295;SDS011;7749;49.964;7.890;2023-02-04T10:31:53;18.30;;;6.10;;
15295;SDS011;7749;49.964;7.890;2023-02-04T10:34:22;23.57;;;6.30;;
15295;SDS011;7749;49.964;7.890;2023-02-04T10:36:59;16.33;;;5.63;;
15295;SDS011;7749;49.964;7.890;2023-02-04T10:39:41;19.07;;;5.83;;
15295;SDS011;7749;49.964;7.890;2023-02-04T10:42:19;18.37;;;5.53;;
15295;SDS011;7749;49.964;7.890;2023-02-04T10:44:48;16.40;;;5.80;;
15295;SDS011;7749;49.964;7.890;2023-02-04T10:52:47;23.53;;;5.13;;
15295;SDS011;7749;49.964;7.890;2023-02-04T10:55:18;16.83;;;5.10;;
15295;SDS011;7749;49.964;7.890;2023-02-04T10:57:50;14.80;;;4.60;;
15295;SDS011;7749;49.964;7.890;2023-02-04T11:00:20;17.90;;;5.53;;
15295;SDS011;7749;49.964;7.890;2023-02-04T11:03:01;15.87;;;4.67;;
15295;SDS011;7749;49.964;7.890;2023-02-04T11:05:37;13.97;;;5.83;;
15295;SDS011;7749;49.964;7.890;2023-02-04T11:08:17;17.80;;;5.37;;
15295;SDS011;7749;49.964;7.890;2023-02-04T11:10:48;11.63;;;4.93;;
15295;SDS011;7749;49.964;7.890;2023-02-04T11:13:20;16.37;;;5.83;;
15295;SDS011;7749;49.964;7.890;2023-02-04T11:15:54;15.53;;;5.63;;
15295;SDS011;7749;49.964;7.890;2023-02-04T11:18:42;14.10;;;5.07;;
15295;SDS011;7749;49.964;7.890;2023-02-04T11:22:03;20.43;;;5.70;;
15295;SDS011;7749;49.964;7.890;2023-02-04T11:26:43;16.83;;;4.90;;
15295;SDS011;7749;49.964;7.890;2023-02-04T11:29:33;13.50;;;4.37;;
15295;SDS011;7749;49.964;7.890;2023-02-04T11:37:38;13.27;;;4.13;;
15295;SDS011;7749;49.964;7.890;2023-02-04T11:40:18;13.87;;;4.27;;
15295;SDS011;7749;49.964;7.890;2023-02-04T11:42:59;11.35;;;4.43;;
15295;SDS011;7749;49.964;7.890;2023-02-04T11:45:37;14.45;;;4.10;;
15295;SDS011;7749;49.964;7.890;2023-02-04T11:48:12;14.07;;;5.38;;
15295;SDS011;7749;49.964;7.890;2023-02-04T11:50:42;10.20;;;4.00;;
15295;SDS011;7749;49.964;7.890;2023-02-04T11:53:31;12.75;;;4.32;;
15295;SDS011;7749;49.964;7.890;2023-02-04T11:56:00;13.65;;;4.40;;
15295;SDS011;7749;49.964;7.890;2023-02-04T11:58:28;13.10;;;4.20;;
15295;SDS011;7749;49.964;7.890;2023-02-04T12:00:57;17.52;;;4.63;;
15295;SDS011;7749;49.964;7.890;2023-02-04T12:03:26;15.17;;;4.27;;
15295;SDS011;7749;49.964;7.890;2023-02-04T12:05:58;12.30;;;4.20;;
15295;SDS011;7749;49.964;7.890;2023-02-04T12:11:09;12.13;;;4.10;;
15295;SDS011;7749;49.964;7.890;2023-02-04T12:14:09;15.67;;;4.87;;
15295;SDS011;7749;49.964;7.890;2023-02-04T12:16:44;11.03;;;3.70;;
15295;SDS011;7749;49.964;7.890;2023-02-04T12:19:18;12.80;;;4.10;;
15295;SDS011;7749;49.964;7.890;2023-02-04T12:21:46;11.70;;;3.63;;
15295;SDS011;7749;49.964;7.890;2023-02-04T12:24:14;11.40;;;4.03;;
15295;SDS011;7749;49.964;7.890;2023-02-04T12:26:41;10.93;;;3.60;;
15295;SDS011;7749;49.964;7.890;2023-02-04T12:29:09;8.55;;;3.15;;
15295;SDS011;7749;49.964;7.890;2023-02-04T12:31:37;10.93;;;3.22;;
15295;SDS011;7749;49.964;7.890;2023-02-04T12:34:04;10.23;;;3.42;;
15295;SDS011;7749;49.964;7.890;2023-02-04T12:36:32;9.10;;;3.70;;
15295;SDS011;7749;49.964;7.890;2023-02-04T12:39:00;11.90;;;3.80;;
15295;SDS011;7749;49.964;7.890;2023-02-04T12:41:29;10.65;;;3.97;;
15295;SDS011;7749;49.964;7.890;2023-02-04T12:43:56;11.43;;;3.67;;
15295;SDS011;7749;49.964;7.890;2023-02-04T12:46:27;9.20;;;3.60;;
15295;SDS011;7749;49.964;7.890;2023-02-04T12:48:55;10.27;;;4.22;;
15295;SDS011;7749;49.964;7.890;2023-02-04T12:51:23;9.68;;;3.88;;
15295;SDS011;7749;49.964;7.890;2023-02-04T12:53:50;10.05;;;3.72;;
15295;SDS011;7749;49.964;7.890;2023-02-04T12:56:19;14.77;;;4.03;;
15295;SDS011;7749;49.964;7.890;2023-02-04T12:58:46;11.90;;;3.80;;
15295;SDS011;7749;49.964;7.890;2023-02-04T13:01:14;12.43;;;3.95;;
15295;SDS011;7749;49.964;7.890;2023-02-04T13:03:42;10.48;;;3.58;;
15295;SDS011;7749;49.964;7.890;2023-02-04T13:06:09;13.30;;;4.20;;
15295;SDS011;7749;49.964;7.890;2023-02-04T13:08:37;8.73;;;3.05;;
15295;SDS011;7749;49.964;7.890;2023-02-04T13:11:05;8.02;;;3.70;;
15295;SDS011;7749;49.964;7.890;2023-02-04T13:13:32;11.30;;;4.20;;
15295;SDS011;7749;49.964;7.890;2023-02-04T13:16:00;9.40;;;3.50;;
15295;SDS011;7749;49.964;7.890;2023-02-04T13:18:28;10.15;;;3.65;;
15295;SDS011;7749;49.964;7.890;2023-02-04T13:20:55;7.85;;;2.58;;
15295;SDS011;7749;49.964;7.890;2023-02-04T13:23:23;13.07;;;5.03;;
15295;SDS011;7749;49.964;7.890;2023-02-04T13:25:51;11.75;;;2.90;;
15295;SDS011;7749;49.964;7.890;2023-02-04T13:28:19;10.52;;;3.60;;
15295;SDS011;7749;49.964;7.890;2023-02-04T13:30:46;9.88;;;3.28;;
15295;SDS011;7749;49.964;7.890;2023-02-04T13:33:14;9.50;;;3.45;;
15295;SDS011;7749;49.964;7.890;2023-02-04T13:35:42;11.60;;;3.67;;
15295;SDS011;7749;49.964;7.890;2023-02-04T13:38:11;13.90;;;4.03;;
15295;SDS011;7749;49.964;7.890;2023-02-04T13:40:39;10.10;;;3.90;;
15295;SDS011;7749;49.964;7.890;2023-02-04T13:43:06;11.52;;;3.78;;
15295;SDS011;7749;49.964;7.890;2023-02-04T13:45:34;11.93;;;4.38;;
15295;SDS011;7749;49.964;7.890;2023-02-04T13:48:02;12.90;;;3.67;;
15295;SDS011;7749;49.964;7.890;2023-02-04T13:50:29;13.23;;;3.93;;
15295;SDS011;7749;49.964;7.890;2023-02-04T13:52:58;12.33;;;4.33;;
15295;SDS011;7749;49.964;7.890;2023-02-04T13:55:25;15.30;;;3.87;;
15295;SDS011;7749;49.964;7.890;2023-02-04T13:57:53;19.43;;;8.07;;
15295;SDS011;7749;49.964;7.890;2023-02-04T14:00:21;12.93;;;4.60;;
15295;SDS011;7749;49.964;7.890;2023-02-04T14:02:56;11.30;;;4.27;;
15295;SDS011;7749;49.964;7.890;2023-02-04T14:05:29;16.00;;;4.70;;
15295;SDS011;7749;49.964;7.890;2023-02-04T14:07:57;16.70;;;3.93;;
15295;SDS011;7749;49.964;7.890;2023-02-04T14:10:24;15.10;;;4.63;;
15295;SDS011;7749;49.964;7.890;2023-02-04T14:12:53;15.87;;;3.80;;
15295;SDS011;7749;49.964;7.890;2023-02-04T14:15:20;15.40;;;3.83;;
15295;SDS011;7749;49.964;7.890;2023-02-04T14:17:51;14.63;;;4.70;;
15295;SDS011;7749;49.964;7.890;2023-02-04T14:20:22;15.93;;;4.60;;
15295;SDS011;7749;49.964;7.890;2023-02-04T14:22:49;15.40;;;3.73;;
15295;SDS011;7749;49.964;7.890;2023-02-04T14:25:17;12.83;;;4.10;;
15295;SDS011;7749;49.964;7.890;2023-02-04T14:27:46;13.88;;;3.55;;
15295;SDS011;7749;49.964;7.890;2023-02-04T14:30:26;11.60;;;3.55;;
15295;SDS011;7749;49.964;7.890;2023-02-04T14:33:10;10.52;;;3.50;;
15295;SDS011;7749;49.964;7.890;2023-02-04T14:35:39;12.68;;;3.85;;
15295;SDS011;7749;49.964;7.890;2023-02-04T14:38:07;11.02;;;3.70;;
15295;SDS011;7749;49.964;7.890;2023-02-04T14:40:52;11.63;;;3.80;;
15295;SDS011;7749;49.964;7.890;2023-02-04T14:43:22;12.45;;;3.55;;
15295;SDS011;7749;49.964;7.890;2023-02-04T14:46:07;10.77;;;3.53;;
15295;SDS011;7749;49.964;7.890;2023-02-04T14:48:38;16.20;;;4.07;;
15295;SDS011;7749;49.964;7.890;2023-02-04T14:51:06;13.80;;;4.25;;
15295;SDS011;7749;49.964;7.890;2023-02-04T14:53:34;18.42;;;3.92;;
15295;SDS011;7749;49.964;7.890;2023-02-04T14:56:01;12.68;;;3.95;;
15295;SDS011;7749;49.964;7.890;2023-02-04T14:58:29;12.77;;;4.00;;
15295;SDS011;7749;49.964;7.890;2023-02-04T15:00:57;12.00;;;4.10;;
15295;SDS011;7749;49.964;7.890;2023-02-04T15:03:25;13.17;;;4.40;;
15295;SDS011;7749;49.964;7.890;2023-02-04T15:05:52;11.57;;;3.27;;
15295;SDS011;7749;49.964;7.890;2023-02-04T15:08:20;9.10;;;4.23;;
15295;SDS011;7749;49.964;7.890;2023-02-04T15:10:47;12.67;;;3.60;;
15295;SDS011;7749;49.964;7.890;2023-02-04T15:13:15;13.40;;;3.53;;
15295;SDS011;7749;49.964;7.890;2023-02-04T15:15:43;15.63;;;4.50;;
15295;SDS011;7749;49.964;7.890;2023-02-04T15:18:11;15.33;;;4.23;;
15295;SDS011;7749;49.964;7.890;2023-02-04T15:20:38;15.50;;;3.57;;
15295;SDS011;7749;49.964;7.890;2023-02-04T15:23:06;11.70;;;3.97;;